sensor_id;sensor_type;location;lat;lon;timestamp;pressure;altitude;pressure_sealevel;temperature;humidity
7441;BME280;29616;51.950;8.572;2023-02-01T00:00:19;100163.44;;;4.62;100.00
7441;BME280;29616;51.950;8.572;2023-02-01T00:02:49;100163.38;;;4.74;100.00
7441;BME280;29616;51.950;8.572;2023-02-01T00:05:19;100179.03;;;4.71;100.00
7441;BME280;29616;51.950;8.572;2023-02-01T00:07:48;100167.59;;;4.78;100.00
7441;BME280;29616;51.950;8.572;2023-02-01T00:10:17;100157.16;;;4.85;100.00
7441;BME280;29616;51.950;8.572;2023-02-01T00:12:46;100142.53;;;4.87;100.00
7441;BME280;29616;51.950;8.572;2023-02-01T00:15:16;100150.78;;;4.86;100.00
7441;BME280;29616;51.950;8.572;2023-02-01T00:17:46;100147.72;;;4.90;100.00
7441;BME280;29616;51.950;8.572;2023-02-01T00:20:17;100152.22;;;5.03;100.00
7441;BME280;29616;51.950;8.572;2023-02-01T00:22:46;100162.28;;;5.01;100.00
7441;BME280;29616;51.950;8.572;2023-02-01T00:25:15;100135.91;;;4.92;100.00
7441;BME280;29616;51.950;8.572;2023-02-01T00:27:46;100163.28;;;5.00;100.00
7441;BME280;29616;51.950;8.572;2023-02-01T00:30:18;100169.28;;;4.92;100.00
7441;BME280;29616;51.950;8.572;2023-02-01T00:32:47;100176.53;;;4.92;100.00
7441;BME280;29616;51.950;8.572;2023-02-01T00:35:18;100167.31;;;4.94;100.00
7441;BME280;29616;51.950;8.572;2023-02-01T00:37:46;100151.53;;;4.88;100.00
7441;BME280;29616;51.950;8.572;2023-02-01T00:40:16;100151.44;;;5.01;100.00
7441;BME280;29616;51.950;8.572;2023-02-01T00:42:46;100150.72;;;4.99;100.00
7441;BME280;29616;51.950;8.572;2023-02-01T00:45:16;100139.22;;;4.95;100.00
7441;BME280;29616;51.950;8.572;2023-02-01T00:47:44;100140.22;;;4.94;100.00
7441;BME280;29616;51.950;8.572;2023-02-01T00:50:17;100147.50;;;4.94;100.00
7441;BME280;29616;51.950;8.572;2023-02-01T00:52:47;100136.66;;;4.94;100.00
7441;BME280;29616;51.950;8.572;2023-02-01T00:55:17;100139.38;;;4.94;100.00
7441;BME280;29616;51.950;8.572;2023-02-01T00:57:46;100137.06;;;5.00;100.00
7441;BME280;29616;51.950;8.572;2023-02-01T01:00:17;100135.69;;;5.06;100.00
7441;BME280;29616;51.950;8.572;2023-02-01T01:02:47;100117.94;;;4.90;100.00
7441;BME280;29616;51.950;8.572;2023-02-01T01:05:18;100143.72;;;5.07;100.00
7441;BME280;29616;51.950;8.572;2023-02-01T01:07:47;100132.50;;;5.01;100.00
7441;BME280;29616;51.950;8.572;2023-02-01T01:10:17;100143.59;;;5.09;100.00
7441;BME280;29616;51.950;8.572;2023-02-01T01:12:46;100136.47;;;5.08;100.00
7441;BME280;29616;51.950;8.572;2023-02-01T01:15:14;100144.50;;;5.20;100.00
7441;BME280;29616;51.950;8.572;2023-02-01T01:17:42;100136.38;;;5.20;100.00
7441;BME280;29616;51.950;8.572;2023-02-01T01:20:13;100136.66;;;5.28;100.00
7441;BME280;29616;51.950;8.572;2023-02-01T01:22:46;100137.88;;;5.24;100.00
7441;BME280;29616;51.950;8.572;2023-02-01T01:25:14;100131.25;;;5.28;100.00
7441;BME280;29616;51.950;8.572;2023-02-01T01:27:43;100125.19;;;5.25;100.00
7441;BME280;29616;51.950;8.572;2023-02-01T01:30:14;100129.28;;;5.30;100.00
7441;BME280;29616;51.950;8.572;2023-02-01T01:32:42;100129.78;;;5.35;100.00
7441;BME280;29616;51.950;8.572;2023-02-01T01:35:11;100125.34;;;5.34;100.00
7441;BME280;29616;51.950;8.572;2023-02-01T01:37:39;100133.34;;;5.36;100.00
7441;BME280;29616;51.950;8.572;2023-02-01T01:40:11;100130.41;;;5.39;100.00
7441;BME280;29616;51.950;8.572;2023-02-01T01:42:43;100133.84;;;5.41;100.00
7441;BME280;29616;51.950;8.572;2023-02-01T01:45:23;100116.34;;;5.34;100.00
7441;BME280;29616;51.950;8.572;2023-02-01T01:47:56;100126.47;;;5.43;100.00
7441;BME280;29616;51.950;8.572;2023-02-01T01:50:31;100131.41;;;5.49;100.00
7441;BME280;29616;51.950;8.572;2023-02-01T01:53:06;100128.47;;;5.52;100.00
7441;BME280;29616;51.950;8.572;2023-02-01T01:55:41;100109.63;;;5.50;100.00
7441;BME280;29616;51.950;8.572;2023-02-01T01:58:15;100107.03;;;5.60;100.00
7441;BME280;29616;51.950;8.572;2023-02-01T02:00:47;100099.50;;;5.53;100.00
7441;BME280;29616;51.950;8.572;2023-02-01T02:03:20;100109.38;;;5.76;100.00
7441;BME280;29616;51.950;8.572;2023-02-01T02:05:50;100097.69;;;5.64;100.00
7441;BME280;29616;51.950;8.572;2023-02-01T02:08:24;100094.97;;;5.75;100.00
7441;BME280;29616;51.950;8.572;2023-02-01T02:10:58;100084.28;;;5.85;100.00
7441;BME280;29616;51.950;8.572;2023-02-01T02:13:33;100083.88;;;5.78;100.00
7441;BME280;29616;51.950;8.572;2023-02-01T02:16:21;100090.66;;;5.84;100.00
7441;BME280;29616;51.950;8.572;2023-02-01T02:19:17;100070.47;;;5.88;100.00
7441;BME280;29616;51.950;8.572;2023-02-01T02:22:04;100078.06;;;5.83;100.00
7441;BME280;29616;51.950;8.572;2023-02-01T02:24:58;100073.16;;;5.77;100.00
7441;BME280;29616;51.950;8.572;2023-02-01T02:27:43;100071.31;;;5.77;100.00
7441;BME280;29616;51.950;8.572;2023-02-01T02:30:52;100036.06;;;5.55;100.00
7441;BME280;29616;51.950;8.572;2023-02-01T02:33:57;100064.41;;;5.73;100.00
7441;BME280;29616;51.950;8.572;2023-02-01T02:36:34;100062.16;;;5.67;100.00
7441;BME280;29616;51.950;8.572;2023-02-01T02:39:08;100056.75;;;5.67;100.00
7441;BME280;29616;51.950;8.572;2023-02-01T02:41:50;100061.69;;;5.73;100.00
7441;BME280;29616;51.950;8.572;2023-02-01T02:44:47;100043.44;;;5.75;100.00
7441;BME280;29616;51.950;8.572;2023-02-01T02:47:54;100023.00;;;5.82;100.00
7441;BME280;29616;51.950;8.572;2023-02-01T02:50:30;100032.75;;;5.85;100.00
7441;BME280;29616;51.950;8.572;2023-02-01T02:53:31;100018.28;;;5.84;100.00
7441;BME280;29616;51.950;8.572;2023-02-01T02:56:21;100022.50;;;5.77;100.00
7441;BME280;29616;51.950;8.572;2023-02-01T02:59:13;100019.53;;;5.91;100.00
7441;BME280;29616;51.950;8.572;2023-02-01T03:01:59;100010.16;;;5.84;100.00
7441;BME280;29616;51.950;8.572;2023-02-01T03:04:51;100010.44;;;5.92;100.00
7441;BME280;29616;51.950;8.572;2023-02-01T03:08:00;100009.44;;;5.93;100.00
7441;BME280;29616;51.950;8.572;2023-02-01T03:10:41;100008.59;;;5.93;100.00
7441;BME280;29616;51.950;8.572;2023-02-01T03:13:19;100003.16;;;5.93;100.00
7441;BME280;29616;51.950;8.572;2023-02-01T03:15:57;100010.19;;;5.95;100.00
7441;BME280;29616;51.950;8.572;2023-02-01T03:18:33;100010.91;;;5.97;100.00
7441;BME280;29616;51.950;8.572;2023-02-01T03:21:08;99998.06;;;5.99;100.00
7441;BME280;29616;51.950;8.572;2023-02-01T03:23:42;100017.78;;;6.01;100.00
7441;BME280;29616;51.950;8.572;2023-02-01T03:26:13;100003.38;;;6.01;100.00
7441;BME280;29616;51.950;8.572;2023-02-01T03:28:51;99998.31;;;6.07;100.00
7441;BME280;29616;51.950;8.572;2023-02-01T03:31:24;99982.03;;;6.07;100.00
7441;BME280;29616;51.950;8.572;2023-02-01T03:33:52;99989.41;;;6.17;100.00
7441;BME280;29616;51.950;8.572;2023-02-01T03:36:26;99989.44;;;6.05;100.00
7441;BME280;29616;51.950;8.572;2023-02-01T03:39:04;99978.34;;;6.08;100.00
7441;BME280;29616;51.950;8.572;2023-02-01T03:41:41;99976.47;;;6.09;100.00
7441;BME280;29616;51.950;8.572;2023-02-01T03:44:15;99949.25;;;5.99;100.00
7441;BME280;29616;51.950;8.572;2023-02-01T03:46:50;99962.06;;;6.08;100.00
7441;BME280;29616;51.950;8.572;2023-02-01T03:49:25;99957.84;;;6.04;100.00
7441;BME280;29616;51.950;8.572;2023-02-01T03:51:58;99944.28;;;6.04;100.00
7441;BME280;29616;51.950;8.572;2023-02-01T03:54:30;99970.44;;;6.05;100.00
7441;BME280;29616;51.950;8.572;2023-02-01T03:57:07;99964.25;;;6.15;100.00
7441;BME280;29616;51.950;8.572;2023-02-01T03:59:39;99955.63;;;6.09;100.00
7441;BME280;29616;51.950;8.572;2023-02-01T04:02:11;99963.72;;;6.21;100.00
7441;BME280;29616;51.950;8.572;2023-02-01T04:04:41;99967.94;;;6.14;100.00
7441;BME280;29616;51.950;8.572;2023-02-01T04:07:14;99956.00;;;6.05;100.00
7441;BME280;29616;51.950;8.572;2023-02-01T04:09:46;99957.50;;;6.09;100.00
7441;BME280;29616;51.950;8.572;2023-02-01T04:12:15;99962.66;;;6.12;100.00
7441;BME280;29616;51.950;8.572;2023-02-01T04:14:43;99954.16;;;6.05;100.00
7441;BME280;29616;51.950;8.572;2023-02-01T04:17:13;99945.31;;;6.03;100.00
7441;BME280;29616;51.950;8.572;2023-02-01T04:19:42;99935.47;;;6.23;100.00
7441;BME280;29616;51.950;8.572;2023-02-01T04:22:13;99946.00;;;6.17;100.00
7441;BME280;29616;51.950;8.572;2023-02-01T04:24:40;99930.09;;;6.12;100.00
7441;BME280;29616;51.950;8.572;2023-02-01T04:27:12;99925.41;;;6.14;100.00
7441;BME280;29616;51.950;8.572;2023-02-01T04:29:41;99934.34;;;6.26;100.00
7441;BME280;29616;51.950;8.572;2023-02-01T04:32:14;99937.81;;;6.28;100.00
7441;BME280;29616;51.950;8.572;2023-02-01T04:34:43;99937.19;;;6.24;100.00
7441;BME280;29616;51.950;8.572;2023-02-01T04:37:14;99922.66;;;6.25;100.00
7441;BME280;29616;51.950;8.572;2023-02-01T04:39:43;99930.41;;;6.30;100.00
7441;BME280;29616;51.950;8.572;2023-02-01T04:42:15;99925.72;;;6.21;100.00
7441;BME280;29616;51.950;8.572;2023-02-01T04:44:45;99933.50;;;6.25;100.00
7441;BME280;29616;51.950;8.572;2023-02-01T04:47:14;99908.50;;;6.10;100.00
7441;BME280;29616;51.950;8.572;2023-02-01T04:49:44;99925.84;;;5.98;100.00
7441;BME280;29616;51.950;8.572;2023-02-01T04:52:14;99926.06;;;6.06;100.00
7441;BME280;29616;51.950;8.572;2023-02-01T04:54:44;99923.47;;;5.94;100.00
7441;BME280;29616;51.950;8.572;2023-02-01T04:57:15;99914.75;;;5.90;100.00
7441;BME280;29616;51.950;8.572;2023-02-01T04:59:45;99922.38;;;5.96;100.00
7441;BME280;29616;51.950;8.572;2023-02-01T05:02:13;99924.59;;;5.91;100.00
7441;BME280;29616;51.950;8.572;2023-02-01T05:04:42;99916.09;;;5.96;100.00
7441;BME280;29616;51.950;8.572;2023-02-01T05:07:13;99896.25;;;5.84;100.00
7441;BME280;29616;51.950;8.572;2023-02-01T05:09:42;99925.97;;;5.86;100.00
7441;BME280;29616;51.950;8.572;2023-02-01T05:12:14;99911.56;;;5.74;100.00
7441;BME280;29616;51.950;8.572;2023-02-01T05:15:00;99926.56;;;5.78;100.00
7441;BME280;29616;51.950;8.572;2023-02-01T05:17:31;99870.69;;;5.44;100.00
7441;BME280;29616;51.950;8.572;2023-02-01T05:20:01;99911.91;;;5.70;100.00
7441;BME280;29616;51.950;8.572;2023-02-01T05:22:31;99922.41;;;5.74;100.00
7441;BME280;29616;51.950;8.572;2023-02-01T05:25:01;99908.88;;;5.63;100.00
7441;BME280;29616;51.950;8.572;2023-02-01T05:27:33;99919.09;;;5.71;100.00
7441;BME280;29616;51.950;8.572;2023-02-01T05:30:03;99881.53;;;5.55;100.00
7441;BME280;29616;51.950;8.572;2023-02-01T05:32:32;99893.72;;;5.61;100.00
7441;BME280;29616;51.950;8.572;2023-02-01T05:35:00;99901.47;;;5.65;100.00
7441;BME280;29616;51.950;8.572;2023-02-01T05:37:31;99897.56;;;5.58;100.00
7441;BME280;29616;51.950;8.572;2023-02-01T05:40:00;99897.78;;;5.66;100.00
7441;BME280;29616;51.950;8.572;2023-02-01T05:42:29;99893.81;;;5.70;100.00
7441;BME280;29616;51.950;8.572;2023-02-01T05:45:00;99890.13;;;5.71;100.00
7441;BME280;29616;51.950;8.572;2023-02-01T05:47:30;99889.03;;;5.63;100.00
7441;BME280;29616;51.950;8.572;2023-02-01T05:49:59;99891.06;;;5.81;100.00
7441;BME280;29616;51.950;8.572;2023-02-01T05:52:29;99877.78;;;5.67;100.00
7441;BME280;29616;51.950;8.572;2023-02-01T05:54:57;99886.69;;;5.69;100.00
7441;BME280;29616;51.950;8.572;2023-02-01T05:57:27;99875.19;;;5.77;100.00
7441;BME280;29616;51.950;8.572;2023-02-01T05:59:57;99877.03;;;5.76;100.00
7441;BME280;29616;51.950;8.572;2023-02-01T06:02:28;99882.22;;;5.79;100.00
7441;BME280;29616;51.950;8.572;2023-02-01T06:04:58;99896.25;;;5.84;100.00
7441;BME280;29616;51.950;8.572;2023-02-01T06:07:26;99894.28;;;5.86;100.00
7441;BME280;29616;51.950;8.572;2023-02-01T06:09:55;99889.72;;;5.87;100.00
7441;BME280;29616;51.950;8.572;2023-02-01T06:12:24;99874.31;;;5.87;100.00
7441;BME280;29616;51.950;8.572;2023-02-01T06:14:56;99889.06;;;6.05;100.00
7441;BME280;29616;51.950;8.572;2023-02-01T06:17:28;99870.59;;;5.88;100.00
7441;BME280;29616;51.950;8.572;2023-02-01T06:19:58;99873.69;;;5.95;100.00
7441;BME280;29616;51.950;8.572;2023-02-01T06:22:29;99872.41;;;5.99;100.00
7441;BME280;29616;51.950;8.572;2023-02-01T06:24:58;99847.16;;;5.98;100.00
7441;BME280;29616;51.950;8.572;2023-02-01T06:27:29;99878.41;;;6.14;100.00
7441;BME280;29616;51.950;8.572;2023-02-01T06:29:59;99869.09;;;6.06;100.00
7441;BME280;29616;51.950;8.572;2023-02-01T06:32:31;99892.22;;;6.10;100.00
7441;BME280;29616;51.950;8.572;2023-02-01T06:35:01;99900.97;;;6.14;100.00
7441;BME280;29616;51.950;8.572;2023-02-01T06:37:30;99895.81;;;6.11;100.00
7441;BME280;29616;51.950;8.572;2023-02-01T06:39:59;99881.38;;;6.10;100.00
7441;BME280;29616;51.950;8.572;2023-02-01T06:42:29;99906.00;;;6.19;100.00
7441;BME280;29616;51.950;8.572;2023-02-01T06:44:57;99905.88;;;6.20;100.00
7441;BME280;29616;51.950;8.572;2023-02-01T06:47:26;99913.66;;;6.25;100.00
7441;BME280;29616;51.950;8.572;2023-02-01T06:49:59;99888.78;;;6.08;100.00
7441;BME280;29616;51.950;8.572;2023-02-01T06:52:31;99913.69;;;6.14;100.00
7441;BME280;29616;51.950;8.572;2023-02-01T06:55:02;99907.66;;;6.31;100.00
7441;BME280;29616;51.950;8.572;2023-02-01T06:57:32;99917.00;;;6.17;100.00
7441;BME280;29616;51.950;8.572;2023-02-01T07:00:10;99913.91;;;6.22;100.00
7441;BME280;29616;51.950;8.572;2023-02-01T07:02:43;99915.41;;;6.15;100.00
7441;BME280;29616;51.950;8.572;2023-02-01T07:05:16;99916.72;;;6.20;100.00
7441;BME280;29616;51.950;8.572;2023-02-01T07:07:48;99926.50;;;6.23;100.00
7441;BME280;29616;51.950;8.572;2023-02-01T07:10:21;99926.13;;;6.16;100.00
7441;BME280;29616;51.950;8.572;2023-02-01T07:12:53;99929.00;;;6.15;100.00
7441;BME280;29616;51.950;8.572;2023-02-01T07:15:27;99924.88;;;6.20;100.00
7441;BME280;29616;51.950;8.572;2023-02-01T07:18:05;99895.94;;;6.09;100.00
7441;BME280;29616;51.950;8.572;2023-02-01T07:20:38;99916.78;;;6.09;100.00
7441;BME280;29616;51.950;8.572;2023-02-01T07:23:09;99926.28;;;6.15;100.00
7441;BME280;29616;51.950;8.572;2023-02-01T07:25:38;99937.59;;;6.20;100.00
7441;BME280;29616;51.950;8.572;2023-02-01T07:28:11;99925.88;;;6.19;100.00
7441;BME280;29616;51.950;8.572;2023-02-01T07:30:43;99935.69;;;6.31;100.00
7441;BME280;29616;51.950;8.572;2023-02-01T07:33:19;99932.03;;;6.21;100.00
7441;BME280;29616;51.950;8.572;2023-02-01T07:35:51;99936.59;;;6.21;100.00
7441;BME280;29616;51.950;8.572;2023-02-01T07:38:20;99953.50;;;6.24;100.00
7441;BME280;29616;51.950;8.572;2023-02-01T07:40:51;99950.63;;;6.26;100.00
7441;BME280;29616;51.950;8.572;2023-02-01T07:43:31;99956.41;;;6.32;100.00
7441;BME280;29616;51.950;8.572;2023-02-01T07:46:01;99953.81;;;6.31;100.00
7441;BME280;29616;51.950;8.572;2023-02-01T07:48:32;99954.81;;;6.30;100.00
7441;BME280;29616;51.950;8.572;2023-02-01T07:51:07;99947.28;;;6.33;100.00
7441;BME280;29616;51.950;8.572;2023-02-01T07:53:39;99947.16;;;6.35;100.00
7441;BME280;29616;51.950;8.572;2023-02-01T07:56:12;99967.28;;;6.32;100.00
7441;BME280;29616;51.950;8.572;2023-02-01T07:58:41;99964.63;;;6.42;100.00
7441;BME280;29616;51.950;8.572;2023-02-01T08:01:14;99979.69;;;6.46;100.00
7441;BME280;29616;51.950;8.572;2023-02-01T08:03:55;99955.94;;;6.27;100.00
7441;BME280;29616;51.950;8.572;2023-02-01T08:06:30;99963.44;;;6.35;100.00
7441;BME280;29616;51.950;8.572;2023-02-01T08:09:03;99976.19;;;6.23;100.00
7441;BME280;29616;51.950;8.572;2023-02-01T08:11:38;99967.38;;;6.31;100.00
7441;BME280;29616;51.950;8.572;2023-02-01T08:14:08;99961.22;;;6.29;100.00
7441;BME280;29616;51.950;8.572;2023-02-01T08:16:38;99966.53;;;6.30;100.00
7441;BME280;29616;51.950;8.572;2023-02-01T08:19:08;99965.28;;;6.34;100.00
7441;BME280;29616;51.950;8.572;2023-02-01T08:21:39;99978.06;;;6.54;100.00
7441;BME280;29616;51.950;8.572;2023-02-01T08:24:09;99971.41;;;6.47;100.00
7441;BME280;29616;51.950;8.572;2023-02-01T08:26:38;99982.34;;;6.57;100.00
7441;BME280;29616;51.950;8.572;2023-02-01T08:29:10;99984.66;;;6.61;100.00
7441;BME280;29616;51.950;8.572;2023-02-01T08:31:41;99977.84;;;6.67;100.00
7441;BME280;29616;51.950;8.572;2023-02-01T08:34:13;99989.03;;;6.73;100.00
7441;BME280;29616;51.950;8.572;2023-02-01T08:36:44;99981.25;;;6.80;100.00
7441;BME280;29616;51.950;8.572;2023-02-01T08:39:15;99982.88;;;6.92;100.00
7441;BME280;29616;51.950;8.572;2023-02-01T08:41:45;99992.09;;;6.80;100.00
7441;BME280;29616;51.950;8.572;2023-02-01T08:44:37;99981.19;;;6.70;100.00
7441;BME280;29616;51.950;8.572;2023-02-01T08:47:10;99987.16;;;6.53;100.00
7441;BME280;29616;51.950;8.572;2023-02-01T08:49:42;99972.06;;;6.60;100.00
7441;BME280;29616;51.950;8.572;2023-02-01T08:52:16;99984.72;;;6.71;100.00
7441;BME280;29616;51.950;8.572;2023-02-01T08:54:45;99980.06;;;6.73;100.00
7441;BME280;29616;51.950;8.572;2023-02-01T08:57:16;99977.00;;;6.66;100.00
7441;BME280;29616;51.950;8.572;2023-02-01T08:59:46;99992.50;;;6.76;100.00
7441;BME280;29616;51.950;8.572;2023-02-01T09:02:15;99959.50;;;6.59;100.00
7441;BME280;29616;51.950;8.572;2023-02-01T09:04:44;99987.75;;;6.89;100.00
7441;BME280;29616;51.950;8.572;2023-02-01T09:07:14;99976.72;;;6.90;100.00
7441;BME280;29616;51.950;8.572;2023-02-01T09:09:43;99986.00;;;6.88;100.00
7441;BME280;29616;51.950;8.572;2023-02-01T09:12:13;99984.09;;;6.99;100.00
7441;BME280;29616;51.950;8.572;2023-02-01T09:14:43;99981.75;;;7.15;100.00
7441;BME280;29616;51.950;8.572;2023-02-01T09:17:13;99970.25;;;7.32;100.00
7441;BME280;29616;51.950;8.572;2023-02-01T09:19:43;99969.38;;;7.32;100.00
7441;BME280;29616;51.950;8.572;2023-02-01T09:22:15;99975.44;;;7.36;100.00
7441;BME280;29616;51.950;8.572;2023-02-01T09:24:44;99973.69;;;7.34;100.00
7441;BME280;29616;51.950;8.572;2023-02-01T09:27:13;99963.13;;;7.31;100.00
7441;BME280;29616;51.950;8.572;2023-02-01T09:29:42;99983.28;;;7.08;100.00
7441;BME280;29616;51.950;8.572;2023-02-01T09:32:10;99973.00;;;7.12;100.00
7441;BME280;29616;51.950;8.572;2023-02-01T09:34:40;99965.06;;;7.20;100.00
7441;BME280;29616;51.950;8.572;2023-02-01T09:37:10;99975.06;;;7.19;100.00
7441;BME280;29616;51.950;8.572;2023-02-01T09:39:42;99974.16;;;7.09;100.00
7441;BME280;29616;51.950;8.572;2023-02-01T09:42:47;99956.66;;;7.02;100.00
7441;BME280;29616;51.950;8.572;2023-02-01T09:45:27;99958.28;;;7.14;100.00
7441;BME280;29616;51.950;8.572;2023-02-01T09:48:13;99962.81;;;7.04;100.00
7441;BME280;29616;51.950;8.572;2023-02-01T09:50:48;99951.88;;;7.15;100.00
7441;BME280;29616;51.950;8.572;2023-02-01T09:53:25;99935.88;;;6.92;100.00
7441;BME280;29616;51.950;8.572;2023-02-01T09:56:04;99946.59;;;6.93;100.00
7441;BME280;29616;51.950;8.572;2023-02-01T09:58:38;99964.81;;;7.02;100.00
7441;BME280;29616;51.950;8.572;2023-02-01T10:01:16;99944.38;;;6.87;100.00
7441;BME280;29616;51.950;8.572;2023-02-01T10:03:47;99974.81;;;7.02;100.00
7441;BME280;29616;51.950;8.572;2023-02-01T10:06:30;99981.97;;;7.23;100.00
7441;BME280;29616;51.950;8.572;2023-02-01T10:09:36;99929.63;;;7.31;100.00
7441;BME280;29616;51.950;8.572;2023-02-01T10:12:40;99970.44;;;7.41;100.00
7441;BME280;29616;51.950;8.572;2023-02-01T10:15:30;99962.09;;;7.63;100.00
7441;BME280;29616;51.950;8.572;2023-02-01T10:18:20;99945.69;;;7.83;100.00
7441;BME280;29616;51.950;8.572;2023-02-01T10:21:00;99925.22;;;7.89;100.00
7441;BME280;29616;51.950;8.572;2023-02-01T10:23:58;99958.63;;;8.01;100.00
7441;BME280;29616;51.950;8.572;2023-02-01T10:26:45;99923.31;;;7.61;100.00
7441;BME280;29616;51.950;8.572;2023-02-01T10:29:27;99924.78;;;7.74;100.00
7441;BME280;29616;51.950;8.572;2023-02-01T10:31:58;99935.88;;;7.62;100.00
7441;BME280;29616;51.950;8.572;2023-02-01T10:34:31;99953.41;;;7.69;100.00
7441;BME280;29616;51.950;8.572;2023-02-01T10:37:08;99924.63;;;7.36;100.00
7441;BME280;29616;51.950;8.572;2023-02-01T10:39:39;99939.44;;;7.53;100.00
7441;BME280;29616;51.950;8.572;2023-02-01T10:42:09;99946.25;;;7.38;100.00
7441;BME280;29616;51.950;8.572;2023-02-01T10:44:43;99942.19;;;7.32;100.00
7441;BME280;29616;51.950;8.572;2023-02-01T10:47:16;99942.19;;;7.32;100.00
7441;BME280;29616;51.950;8.572;2023-02-01T10:49:52;99929.22;;;7.36;100.00
7441;BME280;29616;51.950;8.572;2023-02-01T10:52:36;99934.28;;;7.50;100.00
7441;BME280;29616;51.950;8.572;2023-02-01T10:55:32;99914.44;;;7.28;100.00
7441;BME280;29616;51.950;8.572;2023-02-01T10:58:05;99937.91;;;7.60;100.00
7441;BME280;29616;51.950;8.572;2023-02-01T11:00:47;99950.94;;;7.66;100.00
7441;BME280;29616;51.950;8.572;2023-02-01T11:03:34;99908.38;;;7.15;100.00
7441;BME280;29616;51.950;8.572;2023-02-01T11:06:17;99943.16;;;7.52;100.00
7441;BME280;29616;51.950;8.572;2023-02-01T11:08:49;99927.97;;;7.40;100.00
7441;BME280;29616;51.950;8.572;2023-02-01T11:11:20;99923.69;;;7.47;100.00
7441;BME280;29616;51.950;8.572;2023-02-01T11:13:56;99924.75;;;7.34;100.00
7441;BME280;29616;51.950;8.572;2023-02-01T11:16:35;99925.63;;;7.35;100.00
7441;BME280;29616;51.950;8.572;2023-02-01T11:19:06;99909.19;;;7.37;100.00
7441;BME280;29616;51.950;8.572;2023-02-01T11:21:36;99909.94;;;7.48;100.00
7441;BME280;29616;51.950;8.572;2023-02-01T11:24:15;99889.38;;;7.55;100.00
7441;BME280;29616;51.950;8.572;2023-02-01T11:26:48;99896.91;;;7.42;100.00
7441;BME280;29616;51.950;8.572;2023-02-01T11:29:19;99893.16;;;7.43;100.00
7441;BME280;29616;51.950;8.572;2023-02-01T11:31:55;99884.78;;;7.56;100.00
7441;BME280;29616;51.950;8.572;2023-02-01T11:34:32;99863.59;;;7.50;100.00
7441;BME280;29616;51.950;8.572;2023-02-01T11:37:04;99889.59;;;7.43;100.00
7441;BME280;29616;51.950;8.572;2023-02-01T11:39:39;99851.06;;;7.38;100.00
7441;BME280;29616;51.950;8.572;2023-02-01T11:42:14;99881.00;;;7.38;100.00
7441;BME280;29616;51.950;8.572;2023-02-01T11:44:44;99871.16;;;7.46;100.00
7441;BME280;29616;51.950;8.572;2023-02-01T11:47:24;99862.63;;;7.20;100.00
7441;BME280;29616;51.950;8.572;2023-02-01T11:49:57;99854.31;;;7.12;100.00
7441;BME280;29616;51.950;8.572;2023-02-01T11:52:43;99805.13;;;6.85;100.00
7441;BME280;29616;51.950;8.572;2023-02-01T11:55:43;99818.59;;;6.66;100.00
7441;BME280;29616;51.950;8.572;2023-02-01T11:58:45;99845.00;;;6.85;100.00
7441;BME280;29616;51.950;8.572;2023-02-01T12:01:30;99839.56;;;6.54;100.00
7441;BME280;29616;51.950;8.572;2023-02-01T12:04:51;99843.75;;;6.38;100.00
7441;BME280;29616;51.950;8.572;2023-02-01T12:07:33;99838.06;;;6.41;100.00
7441;BME280;29616;51.950;8.572;2023-02-01T12:10:20;99831.81;;;6.50;100.00
7441;BME280;29616;51.950;8.572;2023-02-01T12:13:02;99834.38;;;6.31;100.00
7441;BME280;29616;51.950;8.572;2023-02-01T12:15:46;99835.16;;;6.33;100.00
7441;BME280;29616;51.950;8.572;2023-02-01T12:18:49;99821.28;;;6.15;100.00
7441;BME280;29616;51.950;8.572;2023-02-01T12:21:39;99830.81;;;6.09;100.00
7441;BME280;29616;51.950;8.572;2023-02-01T12:24:39;99791.78;;;6.01;100.00
7441;BME280;29616;51.950;8.572;2023-02-01T12:27:35;99835.91;;;6.24;100.00
7441;BME280;29616;51.950;8.572;2023-02-01T12:33:16;99819.13;;;6.09;100.00
7441;BME280;29616;51.950;8.572;2023-02-01T12:35:59;99808.72;;;6.14;100.00
7441;BME280;29616;51.950;8.572;2023-02-01T12:38:51;99813.03;;;5.96;100.00
7441;BME280;29616;51.950;8.572;2023-02-01T12:44:37;99809.69;;;5.92;100.00
7441;BME280;29616;51.950;8.572;2023-02-01T12:47:16;99814.28;;;5.81;100.00
7441;BME280;29616;51.950;8.572;2023-02-01T12:49:53;99761.19;;;5.46;100.00
7441;BME280;29616;51.950;8.572;2023-02-01T12:52:32;99792.72;;;5.79;100.00
7441;BME280;29616;51.950;8.572;2023-02-01T12:55:15;99805.56;;;5.77;100.00
7441;BME280;29616;51.950;8.572;2023-02-01T12:57:50;99804.28;;;5.81;100.00
7441;BME280;29616;51.950;8.572;2023-02-01T13:00:30;99810.63;;;5.71;100.00
7441;BME280;29616;51.950;8.572;2023-02-01T13:03:09;99793.59;;;5.80;100.00
7441;BME280;29616;51.950;8.572;2023-02-01T13:05:46;99799.31;;;5.66;100.00
7441;BME280;29616;51.950;8.572;2023-02-01T13:08:23;99791.22;;;5.55;100.00
7441;BME280;29616;51.950;8.572;2023-02-01T13:11:06;99785.69;;;5.56;100.00
7441;BME280;29616;51.950;8.572;2023-02-01T13:13:47;99762.75;;;5.49;100.00
7441;BME280;29616;51.950;8.572;2023-02-01T13:16:24;99771.28;;;5.76;100.00
7441;BME280;29616;51.950;8.572;2023-02-01T13:19:09;99780.13;;;5.89;100.00
7441;BME280;29616;51.950;8.572;2023-02-01T13:21:45;99758.91;;;5.83;100.00
7441;BME280;29616;51.950;8.572;2023-02-01T13:24:29;99787.41;;;5.89;100.00
7441;BME280;29616;51.950;8.572;2023-02-01T13:27:02;99781.06;;;5.99;100.00
7441;BME280;29616;51.950;8.572;2023-02-01T13:29:33;99733.16;;;5.89;100.00
7441;BME280;29616;51.950;8.572;2023-02-01T13:32:18;99770.34;;;6.19;100.00
7441;BME280;29616;51.950;8.572;2023-02-01T13:35:37;99763.50;;;6.24;100.00
7441;BME280;29616;51.950;8.572;2023-02-01T13:38:44;99758.56;;;6.08;100.00
7441;BME280;29616;51.950;8.572;2023-02-01T13:41:25;99773.78;;;6.21;100.00
7441;BME280;29616;51.950;8.572;2023-02-01T13:44:00;99743.34;;;5.96;100.00
7441;BME280;29616;51.950;8.572;2023-02-01T13:46:39;99771.72;;;6.13;100.00
7441;BME280;29616;51.950;8.572;2023-02-01T13:49:20;99767.63;;;6.19;100.00
7441;BME280;29616;51.950;8.572;2023-02-01T13:51:51;99777.34;;;6.21;100.00
7441;BME280;29616;51.950;8.572;2023-02-01T13:54:27;99765.56;;;6.32;100.00
7441;BME280;29616;51.950;8.572;2023-02-01T13:56:58;99719.31;;;6.13;100.00